Time;durP1;ratioP1;P1;durP2;ratioP2;P2;SDS_P1;SDS_P2;PMS_P1;PMS_P2;Temp;Humidity;BMP_temperature;BMP_pressure;BME280_temperature;BME280_humidity;BME280_pressure;Samples;Min_cycle;Max_cycle;Signal;HPM_P1;HPM_P2
2021/04/22 00:01:46;;;;;;;25.15;14.88;;;12.30;61.60;;;;;;5050796;28;20419;-80
2021/04/22 00:04:12;;;;;;;30.58;15.60;;;12.20;61.90;;;;;;5049802;28;20056;-74
2021/04/22 00:06:39;;;;;;;26.48;16.13;;;12.20;62.10;;;;;;5053158;28;20084;-76
2021/04/22 00:09:08;;;;;;;29.15;15.23;;;12.30;62.20;;;;;;5048525;28;20068;-77
2021/04/22 00:11:35;;;;;;;26.42;15.10;;;12.20;62.20;;;;;;5062846;28;20107;-76
2021/04/22 00:14:01;;;;;;;27.95;16.30;;;12.40;62.90;;;;;;5068456;28;20403;-77
2021/04/22 00:16:28;;;;;;;25.60;15.93;;;12.20;62.80;;;;;;5068425;28;20102;-77
2021/04/22 00:18:54;;;;;;;27.02;15.73;;;12.20;62.90;;;;;;5072420;28;20048;-77
2021/04/22 00:21:21;;;;;;;24.52;15.75;;;12.10;63.50;;;;;;5072010;28;20076;-80
2021/04/22 00:23:48;;;;;;;24.38;15.73;;;12.10;63.50;;;;;;5068454;28;20052;-78
2021/04/22 00:26:14;;;;;;;30.00;15.95;;;12.30;63.40;;;;;;5067174;28;20085;-74
2021/04/22 00:28:41;;;;;;;30.60;16.20;;;12.30;63.40;;;;;;5071028;28;20045;-74
2021/04/22 00:31:08;;;;;;;29.13;16.17;;;12.20;63.80;;;;;;5065531;28;20055;-75
2021/04/22 00:33:35;;;;;;;25.90;16.10;;;12.20;64.00;;;;;;5070012;28;20060;-75
2021/04/22 00:36:02;;;;;;;29.05;16.30;;;12.20;64.10;;;;;;5068085;28;20048;-75
2021/04/22 00:38:29;;;;;;;26.50;16.08;;;12.00;64.60;;;;;;5068622;28;21107;-75
2021/04/22 00:40:55;;;;;;;25.60;15.70;;;11.90;65.60;;;;;;5070088;28;20491;-75
2021/04/22 00:43:22;;;;;;;30.90;16.63;;;11.90;65.80;;;;;;5071067;28;20387;-76
2021/04/22 00:45:49;;;;;;;33.42;15.45;;;11.80;65.90;;;;;;5065890;28;20072;-76
2021/04/22 00:48:21;;;;;;;32.00;15.68;;;11.80;66.30;;;;;;5062198;28;20106;-76
2021/04/22 00:50:48;;;;;;;26.70;15.40;;;11.70;67.20;;;;;;5063372;28;20049;-76
2021/04/22 00:53:15;;;;;;;33.92;17.65;;;11.80;66.50;;;;;;5069488;28;20048;-76
2021/04/22 00:55:41;;;;;;;27.73;16.45;;;11.70;66.90;;;;;;5068955;28;20052;-76
2021/04/22 00:58:08;;;;;;;27.42;15.20;;;11.70;66.70;;;;;;5072595;28;20098;-76
2021/04/22 01:00:45;;;;;;;27.70;15.80;;;11.70;67.20;;;;;;5073428;28;20542;-76
2021/04/22 01:03:12;;;;;;;28.45;16.17;;;11.70;66.90;;;;;;5072886;28;20131;-76
2021/04/22 01:05:41;;;;;;;25.33;15.82;;;11.80;67.10;;;;;;5066602;28;20106;-76
2021/04/22 01:08:07;;;;;;;29.70;16.20;;;11.70;67.20;;;;;;5074802;28;20067;-76
2021/04/22 01:10:34;;;;;;;26.02;13.88;;;11.70;67.30;;;;;;5071762;28;20083;-76
2021/04/22 01:13:01;;;;;;;24.83;14.50;;;11.80;67.20;;;;;;5072622;28;20052;-76
2021/04/22 01:15:29;;;;;;;25.00;14.50;;;11.70;67.10;;;;;;5069305;28;20052;-76
2021/04/22 01:17:57;;;;;;;28.88;15.10;;;11.50;68.00;;;;;;5071694;28;20044;-76
2021/04/22 01:20:28;;;;;;;25.52;15.13;;;11.50;68.60;;;;;;5086621;28;20044;-76
2021/04/22 01:22:56;;;;;;;25.35;14.02;;;11.40;68.50;;;;;;5071672;28;20381;-76
2021/04/22 01:25:46;;;;;;;25.77;14.27;;;11.50;68.20;;;;;;5063750;28;20102;-76
2021/04/22 01:28:14;;;;;;;24.50;13.88;;;11.50;67.70;;;;;;5074121;28;20106;-75
2021/04/22 01:30:50;;;;;;;23.00;13.40;;;11.60;67.70;;;;;;5070453;28;20362;-75
2021/04/22 01:33:26;;;;;;;28.25;13.40;;;11.50;67.80;;;;;;5068639;28;20068;-75
2021/04/22 01:35:55;;;;;;;21.88;13.15;;;11.40;68.20;;;;;;5071029;28;20487;-75
2021/04/22 01:38:23;;;;;;;28.38;13.82;;;11.30;68.30;;;;;;5073256;28;20105;-76
2021/04/22 01:40:49;;;;;;;20.88;12.75;;;11.40;68.20;;;;;;5072785;28;20131;-75
2021/04/22 01:43:16;;;;;;;24.80;13.20;;;11.30;68.30;;;;;;5071914;28;20055;-75
2021/04/22 01:45:43;;;;;;;23.67;12.70;;;11.30;68.40;;;;;;5066006;28;20068;-76
2021/04/22 01:48:09;;;;;;;23.35;12.13;;;11.20;68.60;;;;;;5073613;28;20072;-76
2021/04/22 01:50:38;;;;;;;25.02;12.35;;;11.30;68.40;;;;;;5065966;28;20110;-76
2021/04/22 01:53:06;;;;;;;26.77;12.80;;;11.30;68.10;;;;;;5072650;28;20491;-76
2021/04/22 01:55:38;;;;;;;24.42;12.65;;;11.30;68.10;;;;;;5072640;28;20099;-76
2021/04/22 01:58:06;;;;;;;24.13;12.23;;;11.30;67.90;;;;;;5071136;28;20075;-76
2021/04/22 02:00:39;;;;;;;20.83;12.07;;;11.20;68.90;;;;;;5073352;28;20045;-76
2021/04/22 02:03:06;;;;;;;24.58;11.18;;;11.20;68.20;;;;;;5070422;28;20037;-76
2021/04/22 02:05:34;;;;;;;18.88;11.50;;;11.20;68.20;;;;;;5068703;28;20404;-76
2021/04/22 02:08:02;;;;;;;20.10;11.30;;;11.10;68.30;;;;;;5071059;28;20040;-76
2021/04/22 02:10:28;;;;;;;19.33;11.15;;;11.10;68.40;;;;;;5072721;28;20048;-76
2021/04/22 02:12:54;;;;;;;25.00;11.70;;;11.10;68.60;;;;;;5064366;28;20087;-76
2021/04/22 02:15:27;;;;;;;24.42;10.50;;;11.00;68.30;;;;;;5067306;28;20047;-75
2021/04/22 02:17:54;;;;;;;22.23;10.68;;;10.90;68.70;;;;;;5072268;28;20048;-76
2021/04/22 02:20:21;;;;;;;19.95;10.18;;;10.90;69.00;;;;;;5072035;28;20078;-76
2021/04/22 02:22:49;;;;;;;20.70;9.73;;;11.00;68.30;;;;;;5065692;28;20044;-76
2021/04/22 02:25:17;;;;;;;19.30;9.30;;;11.00;68.10;;;;;;5072500;28;20052;-76
2021/04/22 02:27:45;;;;;;;23.85;9.93;;;10.90;68.20;;;;;;5070939;28;20048;-76
2021/04/22 02:30:18;;;;;;;22.70;9.50;;;10.80;68.00;;;;;;5055328;28;20043;-76
2021/04/22 02:32:46;;;;;;;18.23;9.63;;;10.90;67.90;;;;;;5073975;28;20075;-76
2021/04/22 02:35:16;;;;;;;16.80;9.10;;;10.70;67.90;;;;;;5068052;28;20490;-75
2021/04/22 02:37:42;;;;;;;19.25;9.20;;;10.60;68.20;;;;;;5067300;28;20115;-76
2021/04/22 02:40:12;;;;;;;20.15;9.15;;;10.70;68.30;;;;;;5071957;28;20048;-75
2021/04/22 02:42:38;;;;;;;20.83;8.95;;;10.60;68.40;;;;;;5071947;28;20052;-75
2021/04/22 02:45:08;;;;;;;17.33;9.35;;;10.60;68.60;;;;;;5071462;28;20052;-76
2021/04/22 02:47:35;;;;;;;20.92;9.02;;;10.60;68.50;;;;;;5068245;28;20075;-76
2021/04/22 02:50:06;;;;;;;21.13;8.85;;;10.50;68.90;;;;;;5072922;28;20084;-76
2021/04/22 02:52:33;;;;;;;17.40;9.13;;;10.40;69.30;;;;;;5070263;28;20055;-76
2021/04/22 02:55:00;;;;;;;20.52;8.60;;;10.40;70.20;;;;;;5086733;28;20049;-76
2021/04/22 02:57:26;;;;;;;19.35;8.85;;;10.40;69.50;;;;;;5071955;28;20080;-76
2021/04/22 02:59:52;;;;;;;16.50;8.07;;;10.30;69.00;;;;;;5070881;28;20056;-77
2021/04/22 03:02:19;;;;;;;17.65;7.97;;;10.40;68.50;;;;;;5066051;28;20098;-76
2021/04/22 03:04:45;;;;;;;16.30;7.65;;;10.20;69.20;;;;;;5068357;28;20475;-76
2021/04/22 03:07:11;;;;;;;21.88;7.65;;;10.30;68.90;;;;;;5069981;28;20048;-76
2021/04/22 03:09:38;;;;;;;19.67;7.95;;;10.30;68.90;;;;;;5067984;28;20056;-76
2021/04/22 03:12:05;;;;;;;22.65;8.25;;;10.10;69.30;;;;;;5070830;28;20182;-76
2021/04/22 03:14:31;;;;;;;16.38;7.40;;;10.20;69.30;;;;;;5064820;28;20071;-77
2021/04/22 03:16:58;;;;;;;22.92;7.43;;;10.20;68.20;;;;;;5067879;28;20559;-76
2021/04/22 03:19:24;;;;;;;16.33;6.13;;;10.20;67.10;;;;;;5068816;28;20468;-76
2021/04/22 03:21:51;;;;;;;12.75;5.70;;;10.10;66.70;;;;;;5072033;28;20045;-76
2021/04/22 03:24:17;;;;;;;17.50;6.88;;;10.00;66.50;;;;;;5068204;28;20052;-76
2021/04/22 03:26:43;;;;;;;18.73;5.70;;;10.00;66.10;;;;;;5076030;28;20491;-76
2021/04/22 03:29:09;;;;;;;13.20;5.78;;;9.90;67.30;;;;;;5072066;28;20090;-76
2021/04/22 03:31:36;;;;;;;14.82;5.97;;;9.80;67.80;;;;;;5068215;28;20476;-76
2021/04/22 03:34:03;;;;;;;15.23;5.65;;;9.80;68.20;;;;;;5069948;28;20098;-76
2021/04/22 03:36:29;;;;;;;13.77;5.75;;;9.80;68.20;;;;;;5068864;28;20122;-76
2021/04/22 03:38:56;;;;;;;11.57;6.07;;;9.80;68.50;;;;;;5069595;28;20056;-76
2021/04/22 03:41:22;;;;;;;16.88;6.25;;;9.70;68.40;;;;;;5073369;28;20137;-76
2021/04/22 03:43:49;;;;;;;15.10;5.90;;;9.70;68.10;;;;;;5071508;28;20090;-76
2021/04/22 03:46:15;;;;;;;17.42;6.13;;;9.60;68.30;;;;;;5068416;28;20068;-76
2021/04/22 03:48:42;;;;;;;17.38;5.53;;;9.40;68.10;;;;;;5069995;28;20063;-76
2021/04/22 03:51:10;;;;;;;17.25;5.13;;;9.50;67.90;;;;;;5071359;28;20049;-76
2021/04/22 03:53:36;;;;;;;15.73;5.45;;;9.40;67.30;;;;;;5070422;28;20377;-77
2021/04/22 03:56:03;;;;;;;16.30;5.65;;;9.40;66.70;;;;;;5066128;28;20455;-76
2021/04/22 03:58:30;;;;;;;12.75;5.25;;;9.30;66.30;;;;;;5068089;28;20087;-77
2021/04/22 04:00:56;;;;;;;15.32;4.93;;;9.40;65.60;;;;;;5064964;28;20057;-77
2021/04/22 04:03:22;;;;;;;11.30;4.65;;;9.30;65.10;;;;;;5065812;28;20078;-77
2021/04/22 04:05:49;;;;;;;15.23;4.10;;;9.30;64.80;;;;;;5070376;28;20407;-77
2021/04/22 04:08:16;;;;;;;14.05;4.20;;;9.20;64.30;;;;;;5069569;28;20525;-77
2021/04/22 04:10:42;;;;;;;10.55;3.40;;;9.20;64.40;;;;;;5069338;28;20049;-77
2021/04/22 04:13:09;;;;;;;22.88;4.53;;;9.10;63.60;;;;;;5072862;28;20545;-77
2021/04/22 04:15:35;;;;;;;11.40;3.65;;;9.10;63.40;;;;;;5066406;28;20052;-77
2021/04/22 04:18:03;;;;;;;13.65;3.33;;;9.00;63.30;;;;;;5071324;28;20056;-77
2021/04/22 04:20:32;;;;;;;9.30;3.42;;;8.90;63.40;;;;;;5068895;28;20055;-77
2021/04/22 04:22:58;;;;;;;12.02;3.50;;;8.80;62.80;;;;;;5068199;28;20480;-77
2021/04/22 04:25:25;;;;;;;9.60;3.15;;;8.90;62.60;;;;;;5069176;28;20048;-77
2021/04/22 04:27:51;;;;;;;11.95;3.45;;;9.10;61.60;;;;;;5064640;28;20163;-77
2021/04/22 04:30:18;;;;;;;7.85;2.95;;;9.00;61.30;;;;;;5069418;28;20082;-75
2021/04/22 04:32:45;;;;;;;11.35;3.28;;;8.90;60.70;;;;;;5068927;28;20465;-76
2021/04/22 04:35:12;;;;;;;11.00;2.78;;;8.80;60.60;;;;;;5069737;28;20048;-77
2021/04/22 04:37:39;;;;;;;10.30;3.05;;;8.80;60.40;;;;;;5070061;28;20056;-77
2021/04/22 04:40:09;;;;;;;10.23;3.38;;;8.70;60.40;;;;;;5068081;28;20101;-76
2021/04/22 04:42:36;;;;;;;10.18;2.88;;;8.60;61.00;;;;;;5069603;28;20122;-77
2021/04/22 04:45:04;;;;;;;13.25;3.13;;;8.70;61.00;;;;;;5067854;28;20074;-77
2021/04/22 04:47:31;;;;;;;9.57;3.22;;;8.70;60.30;;;;;;5064794;28;20072;-76
2021/04/22 04:49:57;;;;;;;11.20;3.22;;;8.70;60.30;;;;;;5069992;28;20080;-76
2021/04/22 04:52:24;;;;;;;5.88;2.20;;;8.70;60.20;;;;;;5070115;28;20316;-76
2021/04/22 04:54:50;;;;;;;8.45;2.70;;;8.60;59.90;;;;;;5068863;28;20148;-76
2021/04/22 04:57:16;;;;;;;8.60;2.90;;;8.80;59.90;;;;;;5068207;28;20094;-77
2021/04/22 04:59:43;;;;;;;14.95;2.97;;;8.70;59.80;;;;;;5080773;28;20114;-76
2021/04/22 05:02:09;;;;;;;10.85;3.08;;;8.70;59.80;;;;;;5069497;28;20044;-77
2021/04/22 05:04:36;;;;;;;9.90;3.15;;;8.70;59.60;;;;;;5068892;28;20135;-77
2021/04/22 05:07:02;;;;;;;8.43;2.22;;;8.90;59.80;;;;;;5068501;28;20094;-75
2021/04/22 05:09:28;;;;;;;9.15;2.33;;;8.70;59.40;;;;;;5066404;28;20053;-76
2021/04/22 05:11:55;;;;;;;15.18;2.90;;;8.70;59.20;;;;;;5066003;28;20546;-77
2021/04/22 05:14:22;;;;;;;6.90;2.40;;;8.60;59.30;;;;;;5068726;28;20544;-77
2021/04/22 05:16:48;;;;;;;10.18;2.70;;;8.70;59.10;;;;;;5068334;28;20114;-77
2021/04/22 05:19:14;;;;;;;13.43;2.67;;;8.70;58.50;;;;;;5067980;28;20045;-77
2021/04/22 05:21:41;;;;;;;7.15;2.92;;;8.80;58.40;;;;;;5070117;28;20087;-77
2021/04/22 05:24:08;;;;;;;9.10;2.33;;;8.70;58.70;;;;;;5067808;28;20072;-76
2021/04/22 05:26:34;;;;;;;8.02;2.85;;;8.80;58.10;;;;;;5060658;28;20044;-77
2021/04/22 05:29:01;;;;;;;7.45;2.40;;;8.70;58.10;;;;;;5068868;28;20068;-76
2021/04/22 05:31:27;;;;;;;8.63;2.30;;;8.80;57.90;;;;;;5061353;28;20059;-76
2021/04/22 05:33:53;;;;;;;10.20;2.78;;;8.80;57.70;;;;;;5069722;28;20084;-77
2021/04/22 05:36:20;;;;;;;9.88;2.72;;;8.90;57.50;;;;;;5065480;28;20048;-75
2021/04/22 05:38:47;;;;;;;12.88;2.78;;;8.60;57.70;;;;;;5069152;28;20060;-76
2021/04/22 05:41:15;;;;;;;8.43;2.03;;;8.60;57.50;;;;;;5085801;28;20080;-77
2021/04/22 05:43:41;;;;;;;10.10;2.67;;;8.90;57.30;;;;;;5073612;28;20064;-75
2021/04/22 05:46:07;;;;;;;9.43;2.40;;;9.00;56.70;;;;;;5066121;28;20122;-75
2021/04/22 05:48:34;;;;;;;11.68;2.10;;;9.20;56.30;;;;;;5071753;28;20074;-75
2021/04/22 05:51:00;;;;;;;12.23;2.53;;;9.40;55.80;;;;;;5071044;28;20109;-75
2021/04/22 05:53:26;;;;;;;12.55;1.73;;;9.20;55.80;;;;;;5073156;28;20056;-76
2021/04/22 05:55:53;;;;;;;6.20;2.05;;;9.50;55.40;;;;;;5068884;28;20080;-76
2021/04/22 05:58:20;;;;;;;15.02;2.67;;;9.50;54.80;;;;;;5073906;28;20051;-76
2021/04/22 06:00:46;;;;;;;13.13;2.63;;;9.60;55.00;;;;;;5064884;28;20056;-76
2021/04/22 06:03:13;;;;;;;7.35;2.03;;;10.10;53.00;;;;;;5069546;28;20444;-77
2021/04/22 06:05:39;;;;;;;7.55;2.00;;;10.20;52.70;;;;;;5073916;28;20487;-77
2021/04/22 06:08:10;;;;;;;10.30;2.47;;;10.50;52.10;;;;;;5072155;28;20045;-76
2021/04/22 06:10:38;;;;;;;11.65;2.33;;;10.50;51.30;;;;;;5073865;28;20427;-77
2021/04/22 06:13:06;;;;;;;8.63;2.10;;;10.40;51.70;;;;;;5058835;28;20421;-77
2021/04/22 06:15:33;;;;;;;12.35;3.22;;;10.10;51.50;;;;;;5067971;28;20052;-76
2021/04/22 06:17:59;;;;;;;9.10;2.20;;;10.00;51.90;;;;;;5067984;28;20045;-77
2021/04/22 06:20:27;;;;;;;16.60;2.40;;;10.00;51.70;;;;;;5073279;28;20045;-77
2021/04/22 06:22:53;;;;;;;6.55;2.22;;;10.10;51.50;;;;;;5071059;28;20051;-76
2021/04/22 06:25:21;;;;;;;12.80;2.92;;;10.10;51.10;;;;;;5071555;28;20048;-74
2021/04/22 06:27:50;;;;;;;6.53;2.03;;;10.00;51.80;;;;;;5070176;28;20110;-78
2021/04/22 06:30:17;;;;;;;8.90;2.35;;;10.70;50.10;;;;;;5070588;28;20078;-78
2021/04/22 06:32:43;;;;;;;11.30;2.10;;;10.20;49.90;;;;;;5079562;28;20053;-77
2021/04/22 06:35:11;;;;;;;10.68;2.38;;;10.40;49.80;;;;;;5064479;28;20559;-75
2021/04/22 06:37:40;;;;;;;13.70;2.35;;;10.30;49.70;;;;;;5071632;28;20066;-75
2021/04/22 06:40:13;;;;;;;12.32;2.38;;;10.20;49.30;;;;;;5070397;28;20052;-76
2021/04/22 06:42:51;;;;;;;10.55;2.13;;;10.20;49.70;;;;;;5071063;28;20048;-75
2021/04/22 06:45:19;;;;;;;10.32;2.40;;;10.20;49.20;;;;;;5069318;28;20550;-75
2021/04/22 06:47:47;;;;;;;10.80;2.17;;;10.20;48.40;;;;;;5069703;28;20090;-76
2021/04/22 06:50:17;;;;;;;11.40;2.22;;;10.30;47.70;;;;;;5067094;28;20501;-74
2021/04/22 06:52:43;;;;;;;9.13;2.13;;;10.40;46.60;;;;;;5070057;28;20400;-75
2021/04/22 06:55:14;;;;;;;12.48;2.25;;;10.50;46.90;;;;;;5070812;28;20048;-75
2021/04/22 06:57:55;;;;;;;11.07;2.10;;;10.40;46.40;;;;;;5070552;28;20056;-76
2021/04/22 07:00:24;;;;;;;13.73;2.70;;;10.60;46.30;;;;;;5073731;28;20051;-76
2021/04/22 07:02:51;;;;;;;11.48;2.22;;;11.20;45.90;;;;;;5067513;28;20071;-76
2021/04/22 07:05:20;;;;;;;13.60;2.58;;;12.10;43.80;;;;;;5071998;28;20048;-75
2021/04/22 07:07:46;;;;;;;16.83;2.45;;;11.40;43.90;;;;;;5068272;28;20049;-75
2021/04/22 07:10:14;;;;;;;13.20;2.42;;;11.20;44.50;;;;;;5072741;28;20060;-79
2021/04/22 07:12:41;;;;;;;15.85;2.63;;;10.80;44.80;;;;;;5067622;28;20044;-76
2021/04/22 07:15:09;;;;;;;12.05;2.42;;;11.10;44.60;;;;;;5069556;28;20495;-77
2021/04/22 07:17:36;;;;;;;9.73;2.05;;;11.80;44.30;;;;;;5072323;28;20048;-76
2021/04/22 07:20:12;;;;;;;12.40;2.25;;;13.90;42.30;;;;;;5067449;28;20040;-76
2021/04/22 07:22:51;;;;;;;13.30;2.70;;;13.20;41.40;;;;;;5069114;28;20461;-77
2021/04/22 07:25:18;;;;;;;15.75;3.05;;;12.30;42.10;;;;;;5085897;28;20391;-76
2021/04/22 07:27:45;;;;;;;11.20;1.98;;;12.20;42.90;;;;;;5068913;28;20101;-77
2021/04/22 07:30:12;;;;;;;11.82;2.45;;;12.00;42.70;;;;;;5061934;28;20052;-78
2021/04/22 07:32:39;;;;;;;8.57;2.30;;;11.50;43.60;;;;;;5068032;28;20578;-77
2021/04/22 07:35:08;;;;;;;5.70;1.70;;;11.70;43.20;;;;;;5068379;28;20048;-76
2021/04/22 07:37:35;;;;;;;9.57;2.22;;;11.30;44.00;;;;;;5059919;28;20398;-77
2021/04/22 07:40:03;;;;;;;14.75;2.80;;;11.00;44.70;;;;;;5051208;28;20080;-77
2021/04/22 07:42:29;;;;;;;10.35;2.10;;;11.10;43.80;;;;;;5060723;28;20054;-77
2021/04/22 07:44:56;;;;;;;11.55;2.42;;;11.20;43.80;;;;;;5058307;28;20056;-78
2021/04/22 07:47:22;;;;;;;13.90;2.53;;;12.00;43.40;;;;;;5059416;28;20049;-78
2021/04/22 07:49:52;;;;;;;14.45;2.42;;;11.90;42.90;;;;;;5062316;28;20048;-78
2021/04/22 07:52:20;;;;;;;9.60;2.40;;;11.30;42.60;;;;;;5059976;28;20056;-78
2021/04/22 07:54:47;;;;;;;12.32;2.33;;;11.50;42.80;;;;;;5061360;28;20063;-75
2021/04/22 07:57:14;;;;;;;7.70;2.80;;;11.50;43.10;;;;;;5061624;28;20758;-78
2021/04/22 07:59:40;;;;;;;15.85;2.35;;;11.30;42.70;;;;;;5063894;28;20048;-81
2021/04/22 08:02:12;;;;;;;9.30;1.83;;;12.00;42.30;;;;;;5055871;28;20067;-77
2021/04/22 08:04:39;;;;;;;13.45;2.60;;;12.60;41.40;;;;;;5052260;28;20068;-78
2021/04/22 08:07:06;;;;;;;9.45;2.20;;;13.40;40.20;;;;;;5053062;28;20045;-77
2021/04/22 08:09:33;;;;;;;14.32;2.78;;;12.80;40.00;;;;;;5053458;28;20045;-78
2021/04/22 08:12:05;;;;;;;11.27;2.33;;;12.60;40.20;;;;;;5053150;28;20053;-82
2021/04/22 08:14:33;;;;;;;10.70;1.95;;;12.90;40.00;;;;;;5052992;28;20049;-81
2021/04/22 08:17:00;;;;;;;9.77;3.08;;;13.00;39.90;;;;;;5039621;28;20063;-80
2021/04/22 08:19:26;;;;;;;11.10;2.05;;;12.70;40.10;;;;;;5069533;28;20445;-80
2021/04/22 08:21:53;;;;;;;11.40;2.58;;;12.60;40.50;;;;;;5050910;28;20049;-79
2021/04/22 08:24:19;;;;;;;14.20;2.30;;;12.40;40.40;;;;;;5052066;28;20067;-79
2021/04/22 08:26:46;;;;;;;14.50;2.50;;;12.30;40.80;;;;;;5048604;28;20045;-79
2021/04/22 08:29:12;;;;;;;12.63;2.42;;;12.40;40.20;;;;;;5056287;28;20072;-80
2021/04/22 08:31:39;;;;;;;13.20;2.78;;;12.90;39.50;;;;;;5055615;28;20072;-80
2021/04/22 08:34:07;;;;;;;7.85;2.10;;;12.90;38.90;;;;;;5051778;28;20098;-82
2021/04/22 08:36:41;;;;;;;14.65;2.58;;;14.20;38.70;;;;;;5053047;28;20101;-80
2021/04/22 08:39:10;;;;;;;10.32;2.70;;;14.90;37.20;;;;;;5053247;28;20056;-79
2021/04/22 08:41:38;;;;;;;10.63;2.17;;;14.50;36.70;;;;;;5054258;28;20099;-81
2021/04/22 08:44:06;;;;;;;10.07;2.90;;;14.30;37.30;;;;;;5052562;28;20911;-80
2021/04/22 08:46:36;;;;;;;9.90;2.50;;;14.00;38.60;;;;;;5051138;28;21064;-79
2021/04/22 08:49:04;;;;;;;9.77;2.60;;;14.20;37.50;;;;;;5069974;28;20052;-80
2021/04/22 08:51:31;;;;;;;10.77;2.70;;;13.80;38.40;;;;;;5052738;28;20159;-79
2021/04/22 08:53:57;;;;;;;9.38;2.53;;;13.70;38.40;;;;;;5049557;28;20065;-79
2021/04/22 08:56:24;;;;;;;8.20;2.35;;;13.60;38.40;;;;;;5053333;28;20053;-78
2021/04/22 08:58:50;;;;;;;7.60;2.78;;;13.90;38.10;;;;;;5054307;28;20587;-80
2021/04/22 09:01:19;;;;;;;11.02;2.45;;;13.70;37.80;;;;;;5051433;28;20044;-80
2021/04/22 09:03:47;;;;;;;8.52;2.95;;;13.60;38.10;;;;;;5054061;28;20462;-80
2021/04/22 09:06:15;;;;;;;11.38;2.58;;;14.30;37.70;;;;;;5038482;28;20057;-79
2021/04/22 09:08:48;;;;;;;10.50;2.28;;;13.60;37.60;;;;;;5045442;28;20052;-80
2021/04/22 09:11:18;;;;;;;19.70;3.00;;;13.90;36.50;;;;;;5047655;28;20049;-79
2021/04/22 09:13:44;;;;;;;10.65;2.55;;;14.90;36.20;;;;;;5047842;28;20589;-80
2021/04/22 09:16:18;;;;;;;12.00;2.60;;;15.90;34.60;;;;;;5055201;28;20477;-80
2021/04/22 09:18:48;;;;;;;17.50;2.60;;;15.00;34.30;;;;;;5053985;28;20084;-79
2021/04/22 09:21:32;;;;;;;13.70;2.55;;;14.50;35.70;;;;;;5057692;28;20797;-79
2021/04/22 09:24:04;;;;;;;19.70;3.17;;;15.20;35.60;;;;;;5057126;28;20053;-81
2021/04/22 09:26:51;;;;;;;15.77;2.80;;;15.30;34.50;;;;;;5057976;28;20045;-82
2021/04/22 09:29:42;;;;;;;10.27;2.55;;;15.40;34.90;;;;;;5057657;28;20056;-81
2021/04/22 09:32:18;;;;;;;;;;;16.20;33.90;;;;;;5055106;28;20049;-81
2021/04/22 09:34:57;;;;;;;12.52;2.33;;;15.90;34.10;;;;;;5054773;28;19928;-81
2021/04/22 09:37:43;;;;;;;9.05;2.45;;;15.60;34.30;;;;;;5056613;28;20048;-79
2021/04/22 09:40:30;;;;;;;12.07;2.58;;;15.50;34.10;;;;;;5054529;28;20060;-81
2021/04/22 09:43:00;;;;;;;9.20;2.78;;;15.70;33.90;;;;;;5056418;28;20435;-81
2021/04/22 09:45:31;;;;;;;12.75;3.05;;;14.80;34.30;;;;;;5058266;28;20056;-81
2021/04/22 09:48:15;;;;;;;12.18;2.53;;;14.60;34.90;;;;;;5064113;28;20123;-81
2021/04/22 09:50:43;;;;;;;10.32;2.50;;;15.10;34.40;;;;;;5058947;28;20108;-81
2021/04/22 09:53:15;;;;;;;16.77;2.95;;;15.40;33.60;;;;;;5061686;28;20061;-79
2021/04/22 09:55:42;;;;;;;13.35;2.92;;;15.20;34.10;;;;;;5058615;28;20063;-79
2021/04/22 09:58:09;;;;;;;10.35;2.92;;;14.80;34.60;;;;;;5060261;28;20446;-80
2021/04/22 10:00:37;;;;;;;9.60;2.65;;;14.70;34.40;;;;;;5058985;28;20456;-80
2021/04/22 10:03:09;;;;;;;11.23;3.08;;;14.50;35.20;;;;;;5054065;28;20056;-80
2021/04/22 10:05:40;;;;;;;11.45;2.75;;;14.40;35.30;;;;;;5040366;28;20059;-81
2021/04/22 10:08:13;;;;;;;11.38;3.20;;;14.20;35.20;;;;;;5056330;28;20414;-80
2021/04/22 10:10:54;;;;;;;9.07;2.60;;;14.60;35.60;;;;;;5052470;28;20053;-80
2021/04/22 10:13:21;;;;;;;11.15;3.03;;;15.00;34.80;;;;;;5053231;28;20076;-80
2021/04/22 10:15:52;;;;;;;9.80;3.10;;;15.30;34.50;;;;;;5056309;28;20438;-81
2021/04/22 10:18:19;;;;;;;10.43;2.88;;;15.80;34.40;;;;;;5056346;28;20052;-81
2021/04/22 10:20:46;;;;;;;7.90;2.72;;;16.90;33.70;;;;;;5055223;28;20049;-78
2021/04/22 10:23:13;;;;;;;14.45;2.97;;;18.00;31.00;;;;;;5053494;28;20076;-81
2021/04/22 10:25:43;;;;;;;12.02;3.03;;;17.30;30.90;;;;;;5050828;28;20157;-79
2021/04/22 10:28:14;;;;;;;10.80;3.08;;;17.50;31.40;;;;;;5051605;28;20047;-79
2021/04/22 10:30:44;;;;;;;7.30;2.65;;;17.90;30.10;;;;;;5054769;28;20048;-79
2021/04/22 10:33:11;;;;;;;13.75;3.22;;;18.10;30.20;;;;;;5052720;28;20045;-80
2021/04/22 10:35:41;;;;;;;10.65;3.13;;;17.10;31.20;;;;;;5052424;28;20053;-79
2021/04/22 10:38:08;;;;;;;16.48;3.22;;;17.70;31.30;;;;;;5054356;28;20466;-80
2021/04/22 10:40:38;;;;;;;10.98;3.30;;;16.70;31.80;;;;;;5055744;28;20477;-79
2021/04/22 10:43:07;;;;;;;6.68;2.53;;;16.80;32.20;;;;;;5053212;28;20053;-79
2021/04/22 10:45:37;;;;;;;9.00;2.85;;;17.40;32.20;;;;;;5052318;28;20091;-79
2021/04/22 10:48:05;;;;;;;10.77;2.95;;;20.20;30.00;;;;;;5054704;28;20479;-79
2021/04/22 10:50:38;;;;;;;12.75;2.80;;;20.50;28.90;;;;;;5055943;28;20056;-81
2021/04/22 10:53:09;;;;;;;9.45;2.85;;;20.30;28.00;;;;;;5056514;28;20059;-80
2021/04/22 10:55:40;;;;;;;10.82;2.78;;;19.00;28.90;;;;;;5052022;28;20122;-80
2021/04/22 10:58:19;;;;;;;9.70;2.75;;;19.80;29.00;;;;;;5052452;28;20068;-80
2021/04/22 11:00:55;;;;;;;10.60;2.80;;;18.80;29.30;;;;;;5068634;28;20053;-79
2021/04/22 11:03:40;;;;;;;9.65;2.88;;;18.20;29.90;;;;;;5053035;28;20057;-80
2021/04/22 11:06:09;;;;;;;15.02;3.13;;;17.80;29.90;;;;;;5053414;28;20086;-80
2021/04/22 11:08:55;;;;;;;9.73;2.70;;;16.70;29.80;;;;;;5051529;28;20153;-79
2021/04/22 11:11:34;;;;;;;13.25;3.72;;;16.20;31.90;;;;;;5054785;28;20151;-79
2021/04/22 11:14:14;;;;;;;10.77;2.75;;;15.90;32.10;;;;;;5070462;28;20041;-79
2021/04/22 11:16:50;;;;;;;11.30;2.63;;;16.70;31.80;;;;;;5055732;28;20048;-79
2021/04/22 11:19:36;;;;;;;13.23;2.90;;;16.20;32.00;;;;;;5051661;28;20056;-75
2021/04/22 11:22:19;;;;;;;13.02;2.53;;;16.20;32.40;;;;;;5049872;28;20048;-73
2021/04/22 11:24:54;;;;;;;9.10;2.63;;;16.30;33.30;;;;;;5065156;28;20415;-74
2021/04/22 11:27:22;;;;;;;12.85;2.92;;;16.40;31.70;;;;;;5049506;28;20055;-74
2021/04/22 11:29:53;;;;;;;10.93;3.10;;;16.30;31.30;;;;;;5051133;28;20049;-74
2021/04/22 11:32:42;;;;;;;11.30;2.63;;;16.40;31.40;;;;;;5046888;28;20141;-74
2021/04/22 11:35:08;;;;;;;13.35;3.20;;;16.90;31.30;;;;;;5050464;28;20591;-75
2021/04/22 11:37:50;;;;;;;14.95;2.70;;;17.10;30.60;;;;;;5047738;28;20416;-73
2021/04/22 11:40:23;;;;;;;11.88;3.15;;;17.40;30.10;;;;;;5051165;28;20060;-74
2021/04/22 11:42:52;;;;;;;11.93;2.67;;;17.20;30.10;;;;;;5049725;28;20060;-73
2021/04/22 11:45:22;;;;;;;13.20;2.80;;;17.00;31.30;;;;;;5048228;28;20049;-75
2021/04/22 11:48:01;;;;;;;10.50;2.85;;;17.60;30.60;;;;;;5047172;28;20143;-75
2021/04/22 11:50:46;;;;;;;9.40;3.22;;;18.80;29.80;;;;;;5054948;28;20045;-73
2021/04/22 11:53:13;;;;;;;10.25;2.70;;;18.30;29.70;;;;;;5050240;28;20060;-74
2021/04/22 11:55:48;;;;;;;14.82;3.17;;;18.90;30.20;;;;;;5049477;28;20543;-74
2021/04/22 11:58:18;;;;;;;14.43;3.05;;;20.60;28.40;;;;;;5049730;28;20056;-75
2021/04/22 12:00:49;;;;;;;12.63;2.87;;;21.30;27.50;;;;;;5050662;28;20048;-75
2021/04/22 12:03:30;;;;;;;10.63;2.78;;;19.80;28.30;;;;;;5046182;28;20051;-75
2021/04/22 12:06:02;;;;;;;8.88;2.70;;;19.20;28.30;;;;;;5052304;28;20080;-75
2021/04/22 12:08:33;;;;;;;8.68;2.97;;;20.20;28.10;;;;;;5055887;28;20048;-74
2021/04/22 12:11:02;;;;;;;13.27;3.20;;;20.50;27.90;;;;;;5058943;28;20098;-74
2021/04/22 12:13:30;;;;;;;13.57;3.28;;;20.70;27.60;;;;;;5056288;28;20151;-75
2021/04/22 12:15:58;;;;;;;13.38;3.08;;;20.60;27.60;;;;;;5059676;28;20463;-76
2021/04/22 12:18:31;;;;;;;12.35;3.17;;;20.90;28.20;;;;;;5058705;28;20154;-73
2021/04/22 12:21:16;;;;;;;12.90;3.05;;;19.30;28.20;;;;;;5055897;28;20507;-74
2021/04/22 12:23:45;;;;;;;12.18;2.97;;;19.60;29.50;;;;;;5059840;28;20830;-77
2021/04/22 12:26:16;;;;;;;9.30;3.40;;;19.70;29.10;;;;;;5060306;28;20048;-74
2021/04/22 12:29:07;;;;;;;14.00;3.08;;;21.50;28.50;;;;;;5057514;28;20048;-74
2021/04/22 12:31:35;;;;;;;;;;;23.20;27.50;;;;;;5061350;28;20110;-74
2021/04/22 12:34:22;;;;;;;9.50;3.17;;;23.60;27.20;;;;;;5057297;28;19924;-73
2021/04/22 12:37:09;;;;;;;11.55;3.45;;;23.40;26.70;;;;;;5054525;28;20472;-74
2021/04/22 12:39:46;;;;;;;13.07;3.17;;;23.70;27.20;;;;;;5060991;28;20492;-74
2021/04/22 12:42:30;;;;;;;8.85;3.10;;;22.70;27.40;;;;;;5059553;28;20099;-74
2021/04/22 12:44:58;;;;;;;13.45;3.10;;;23.00;27.30;;;;;;5058311;28;20049;-74
2021/04/22 12:47:55;;;;;;;10.23;3.10;;;22.90;27.00;;;;;;5058434;28;20052;-74
2021/04/22 12:50:35;;;;;;;9.48;3.13;;;23.80;26.00;;;;;;5053134;28;24279;-74
2021/04/22 12:53:13;;;;;;;12.20;2.83;;;22.40;27.20;;;;;;5063789;28;20048;-74